sensor_id;sensor_type;location;lat;lon;timestamp;P1;durP1;ratioP1;P2;durP2;ratioP2
45382;SDS011;42455;51.660;5.824;2023-04-25T00:00:02;9.5;;;5.0;;
45382;SDS011;42455;51.660;5.824;2023-04-25T00:05:08;9.0;;;5.0;;
45382;SDS011;42455;51.660;5.824;2023-04-25T00:10:14;10.0;;;5.0;;
45382;SDS011;42455;51.660;5.824;2023-04-25T00:15:20;9.0;;;4.0;;
45382;SDS011;42455;51.660;5.824;2023-04-25T00:20:26;8.0;;;5.0;;
45382;SDS011;42455;51.660;5.824;2023-04-25T00:25:33;9.0;;;4.0;;
45382;SDS011;42455;51.660;5.824;2023-04-25T00:30:38;9.0;;;5.0;;
45382;SDS011;42455;51.660;5.824;2023-04-25T00:35:44;7.0;;;4.0;;
45382;SDS011;42455;51.660;5.824;2023-04-25T00:40:49;8.0;;;4.0;;
45382;SDS011;42455;51.660;5.824;2023-04-25T00:45:55;8.5;;;5.0;;
45382;SDS011;42455;51.660;5.824;2023-04-25T00:51:01;11.0;;;5.0;;
45382;SDS011;42455;51.660;5.824;2023-04-25T00:56:07;10.0;;;4.0;;
45382;SDS011;42455;51.660;5.824;2023-04-25T01:01:13;8.0;;;4.0;;
45382;SDS011;42455;51.660;5.824;2023-04-25T01:06:19;8.0;;;4.0;;
45382;SDS011;42455;51.660;5.824;2023-04-25T01:11:25;8.0;;;4.0;;
45382;SDS011;42455;51.660;5.824;2023-04-25T01:16:32;8.5;;;4.0;;
45382;SDS011;42455;51.660;5.824;2023-04-25T01:21:38;8.5;;;4.0;;
45382;SDS011;42455;51.660;5.824;2023-04-25T01:26:44;9.0;;;4.0;;
45382;SDS011;42455;51.660;5.824;2023-04-25T01:31:50;8.0;;;4.0;;
45382;SDS011;42455;51.660;5.824;2023-04-25T01:36:59;10.5;;;5.0;;
45382;SDS011;42455;51.660;5.824;2023-04-25T01:42:03;9.0;;;5.0;;
45382;SDS011;42455;51.660;5.824;2023-04-25T01:47:09;11.0;;;5.0;;
45382;SDS011;42455;51.660;5.824;2023-04-25T01:52:15;12.0;;;4.0;;
45382;SDS011;42455;51.660;5.824;2023-04-25T01:57:21;13.0;;;5.0;;
45382;SDS011;42455;51.660;5.824;2023-04-25T02:02:28;10.0;;;4.0;;
45382;SDS011;42455;51.660;5.824;2023-04-25T02:07:34;11.0;;;5.0;;
45382;SDS011;42455;51.660;5.824;2023-04-25T02:12:40;9.0;;;4.0;;
45382;SDS011;42455;51.660;5.824;2023-04-25T02:17:46;10.0;;;5.0;;
45382;SDS011;42455;51.660;5.824;2023-04-25T02:22:52;10.5;;;5.0;;
45382;SDS011;42455;51.660;5.824;2023-04-25T02:27:59;13.0;;;5.0;;
45382;SDS011;42455;51.660;5.824;2023-04-25T02:33:05;10.0;;;5.0;;
45382;SDS011;42455;51.660;5.824;2023-04-25T02:38:10;10.0;;;5.0;;
45382;SDS011;42455;51.660;5.824;2023-04-25T02:43:16;11.0;;;5.0;;
45382;SDS011;42455;51.660;5.824;2023-04-25T02:48:22;10.0;;;5.0;;
45382;SDS011;42455;51.660;5.824;2023-04-25T02:58:34;10.0;;;5.0;;
45382;SDS011;42455;51.660;5.824;2023-04-25T03:03:40;12.0;;;5.0;;
45382;SDS011;42455;51.660;5.824;2023-04-25T03:08:46;13.0;;;5.0;;
45382;SDS011;42455;51.660;5.824;2023-04-25T03:13:53;11.0;;;6.0;;
45382;SDS011;42455;51.660;5.824;2023-04-25T03:18:59;11.0;;;5.0;;
45382;SDS011;42455;51.660;5.824;2023-04-25T03:24:05;9.5;;;5.0;;
45382;SDS011;42455;51.660;5.824;2023-04-25T03:29:11;13.0;;;6.0;;
45382;SDS011;42455;51.660;5.824;2023-04-25T03:34:17;11.0;;;6.0;;
45382;SDS011;42455;51.660;5.824;2023-04-25T03:39:24;10.0;;;5.0;;
45382;SDS011;42455;51.660;5.824;2023-04-25T03:44:30;11.0;;;5.0;;
45382;SDS011;42455;51.660;5.824;2023-04-25T03:49:36;13.0;;;6.0;;
45382;SDS011;42455;51.660;5.824;2023-04-25T03:54:42;12.0;;;6.0;;
45382;SDS011;42455;51.660;5.824;2023-04-25T03:59:48;13.0;;;6.0;;
45382;SDS011;42455;51.660;5.824;2023-04-25T04:04:55;15.0;;;6.0;;
45382;SDS011;42455;51.660;5.824;2023-04-25T04:10:01;12.0;;;6.0;;
45382;SDS011;42455;51.660;5.824;2023-04-25T04:15:07;12.0;;;6.0;;
45382;SDS011;42455;51.660;5.824;2023-04-25T04:20:13;16.0;;;6.0;;
45382;SDS011;42455;51.660;5.824;2023-04-25T04:25:20;12.0;;;6.0;;
45382;SDS011;42455;51.660;5.824;2023-04-25T04:30:26;12.5;;;6.0;;
45382;SDS011;42455;51.660;5.824;2023-04-25T04:35:32;11.0;;;6.0;;
45382;SDS011;42455;51.660;5.824;2023-04-25T04:40:37;11.5;;;6.0;;
45382;SDS011;42455;51.660;5.824;2023-04-25T04:45:43;12.0;;;6.0;;
45382;SDS011;42455;51.660;5.824;2023-04-25T04:50:50;10.0;;;6.0;;
45382;SDS011;42455;51.660;5.824;2023-04-25T04:55:56;12.0;;;6.0;;
45382;SDS011;42455;51.660;5.824;2023-04-25T05:01:01;14.0;;;6.0;;
45382;SDS011;42455;51.660;5.824;2023-04-25T05:06:07;13.0;;;6.0;;
45382;SDS011;42455;51.660;5.824;2023-04-25T05:11:13;10.5;;;6.0;;
45382;SDS011;42455;51.660;5.824;2023-04-25T05:16:20;14.5;;;6.0;;
45382;SDS011;42455;51.660;5.824;2023-04-25T05:21:26;14.0;;;6.0;;
45382;SDS011;42455;51.660;5.824;2023-04-25T05:26:32;11.5;;;5.5;;
45382;SDS011;42455;51.660;5.824;2023-04-25T05:31:38;14.0;;;6.0;;
45382;SDS011;42455;51.660;5.824;2023-04-25T05:36:44;14.0;;;6.0;;
45382;SDS011;42455;51.660;5.824;2023-04-25T05:41:51;12.0;;;6.0;;
45382;SDS011;42455;51.660;5.824;2023-04-25T05:46:57;13.0;;;6.0;;
45382;SDS011;42455;51.660;5.824;2023-04-25T05:52:03;12.0;;;6.0;;
45382;SDS011;42455;51.660;5.824;2023-04-25T05:57:14;11.0;;;6.0;;
45382;SDS011;42455;51.660;5.824;2023-04-25T06:02:15;11.0;;;6.0;;
45382;SDS011;42455;51.660;5.824;2023-04-25T06:07:22;12.0;;;5.0;;
45382;SDS011;42455;51.660;5.824;2023-04-25T06:12:28;10.0;;;5.0;;
45382;SDS011;42455;51.660;5.824;2023-04-25T06:17:34;9.0;;;5.0;;
45382;SDS011;42455;51.660;5.824;2023-04-25T06:22:40;10.0;;;4.0;;
45382;SDS011;42455;51.660;5.824;2023-04-25T06:27:46;11.0;;;4.0;;
45382;SDS011;42455;51.660;5.824;2023-04-25T06:32:53;8.0;;;4.0;;
45382;SDS011;42455;51.660;5.824;2023-04-25T06:37:59;9.0;;;4.0;;
45382;SDS011;42455;51.660;5.824;2023-04-25T06:43:05;8.0;;;3.0;;
45382;SDS011;42455;51.660;5.824;2023-04-25T06:48:10;8.0;;;3.0;;
45382;SDS011;42455;51.660;5.824;2023-04-25T06:53:17;7.0;;;3.0;;
45382;SDS011;42455;51.660;5.824;2023-04-25T06:58:22;7.0;;;3.0;;
45382;SDS011;42455;51.660;5.824;2023-04-25T07:03:28;7.0;;;3.0;;
45382;SDS011;42455;51.660;5.824;2023-04-25T07:08:34;7.0;;;3.0;;
45382;SDS011;42455;51.660;5.824;2023-04-25T07:13:41;7.0;;;3.0;;
45382;SDS011;42455;51.660;5.824;2023-04-25T07:18:47;4.5;;;2.0;;
45382;SDS011;42455;51.660;5.824;2023-04-25T07:23:53;7.5;;;3.0;;
45382;SDS011;42455;51.660;5.824;2023-04-25T07:28:59;7.0;;;2.0;;
45382;SDS011;42455;51.660;5.824;2023-04-25T07:34:05;6.0;;;3.0;;
45382;SDS011;42455;51.660;5.824;2023-04-25T07:39:11;8.0;;;2.0;;
45382;SDS011;42455;51.660;5.824;2023-04-25T07:44:18;7.0;;;3.0;;
45382;SDS011;42455;51.660;5.824;2023-04-25T07:49:24;6.0;;;2.0;;
45382;SDS011;42455;51.660;5.824;2023-04-25T07:54:30;7.0;;;2.0;;
45382;SDS011;42455;51.660;5.824;2023-04-25T07:59:36;7.0;;;2.0;;
45382;SDS011;42455;51.660;5.824;2023-04-25T08:04:43;7.0;;;2.0;;
45382;SDS011;42455;51.660;5.824;2023-04-25T08:09:49;5.0;;;2.0;;
45382;SDS011;42455;51.660;5.824;2023-04-25T08:14:55;6.0;;;2.0;;
45382;SDS011;42455;51.660;5.824;2023-04-25T08:20:01;5.0;;;2.0;;
45382;SDS011;42455;51.660;5.824;2023-04-25T08:25:07;4.0;;;1.0;;
45382;SDS011;42455;51.660;5.824;2023-04-25T08:30:14;7.0;;;2.0;;
45382;SDS011;42455;51.660;5.824;2023-04-25T08:35:20;4.0;;;2.0;;
45382;SDS011;42455;51.660;5.824;2023-04-25T08:40:26;5.0;;;1.0;;
45382;SDS011;42455;51.660;5.824;2023-04-25T08:45:31;5.0;;;1.0;;
45382;SDS011;42455;51.660;5.824;2023-04-25T08:50:38;5.0;;;1.0;;
45382;SDS011;42455;51.660;5.824;2023-04-25T08:55:43;4.0;;;2.0;;
45382;SDS011;42455;51.660;5.824;2023-04-25T09:00:50;4.0;;;1.0;;
45382;SDS011;42455;51.660;5.824;2023-04-25T09:05:55;4.0;;;1.0;;
45382;SDS011;42455;51.660;5.824;2023-04-25T09:11:01;5.0;;;2.0;;
45382;SDS011;42455;51.660;5.824;2023-04-25T09:16:08;5.0;;;1.0;;
45382;SDS011;42455;51.660;5.824;2023-04-25T09:21:14;5.0;;;1.0;;
45382;SDS011;42455;51.660;5.824;2023-04-25T09:26:20;3.5;;;1.0;;
45382;SDS011;42455;51.660;5.824;2023-04-25T09:31:26;4.0;;;1.0;;
45382;SDS011;42455;51.660;5.824;2023-04-25T09:36:32;6.0;;;2.0;;
45382;SDS011;42455;51.660;5.824;2023-04-25T09:41:38;5.0;;;1.0;;
45382;SDS011;42455;51.660;5.824;2023-04-25T09:46:46;4.5;;;1.0;;
45382;SDS011;42455;51.660;5.824;2023-04-25T09:56:57;4.5;;;1.0;;
45382;SDS011;42455;51.660;5.824;2023-04-25T10:02:03;4.0;;;2.0;;
45382;SDS011;42455;51.660;5.824;2023-04-25T10:07:10;5.0;;;2.0;;
45382;SDS011;42455;51.660;5.824;2023-04-25T10:12:16;7.0;;;2.0;;
45382;SDS011;42455;51.660;5.824;2023-04-25T10:17:22;6.0;;;2.0;;
45382;SDS011;42455;51.660;5.824;2023-04-25T10:22:36;3.0;;;1.0;;
45382;SDS011;42455;51.660;5.824;2023-04-25T10:27:35;4.0;;;1.0;;
45382;SDS011;42455;51.660;5.824;2023-04-25T10:32:41;4.0;;;1.0;;
45382;SDS011;42455;51.660;5.824;2023-04-25T10:38:03;5.0;;;1.0;;
45382;SDS011;42455;51.660;5.824;2023-04-25T10:42:53;4.0;;;1.0;;
45382;SDS011;42455;51.660;5.824;2023-04-25T10:47:58;3.0;;;1.0;;
45382;SDS011;42455;51.660;5.824;2023-04-25T10:53:14;3.0;;;1.0;;
45382;SDS011;42455;51.660;5.824;2023-04-25T10:58:10;3.0;;;1.0;;
45382;SDS011;42455;51.660;5.824;2023-04-25T11:03:16;4.0;;;1.0;;
45382;SDS011;42455;51.660;5.824;2023-04-25T11:08:24;3.5;;;1.5;;
45382;SDS011;42455;51.660;5.824;2023-04-25T11:13:29;4.0;;;1.0;;
45382;SDS011;42455;51.660;5.824;2023-04-25T11:18:35;3.0;;;1.0;;
45382;SDS011;42455;51.660;5.824;2023-04-25T11:23:41;2.0;;;1.0;;
45382;SDS011;42455;51.660;5.824;2023-04-25T11:28:47;4.0;;;1.0;;
45382;SDS011;42455;51.660;5.824;2023-04-25T11:33:53;2.0;;;1.0;;
45382;SDS011;42455;51.660;5.824;2023-04-25T11:38:59;4.0;;;1.0;;
45382;SDS011;42455;51.660;5.824;2023-04-25T11:44:06;4.0;;;1.0;;
45382;SDS011;42455;51.660;5.824;2023-04-25T11:49:12;3.0;;;1.0;;
45382;SDS011;42455;51.660;5.824;2023-04-25T11:54:18;5.0;;;2.0;;
45382;SDS011;42455;51.660;5.824;2023-04-25T11:59:25;4.0;;;1.0;;
45382;SDS011;42455;51.660;5.824;2023-04-25T12:04:30;4.0;;;1.0;;
45382;SDS011;42455;51.660;5.824;2023-04-25T12:09:37;4.0;;;1.0;;
45382;SDS011;42455;51.660;5.824;2023-04-25T12:14:45;6.0;;;1.0;;
45382;SDS011;42455;51.660;5.824;2023-04-25T12:19:49;4.0;;;1.0;;
45382;SDS011;42455;51.660;5.824;2023-04-25T12:24:55;7.0;;;2.0;;
45382;SDS011;42455;51.660;5.824;2023-04-25T12:30:02;4.0;;;1.0;;
45382;SDS011;42455;51.660;5.824;2023-04-25T12:35:08;7.5;;;2.0;;
45382;SDS011;42455;51.660;5.824;2023-04-25T12:40:14;5.0;;;2.0;;
45382;SDS011;42455;51.660;5.824;2023-04-25T12:45:19;3.0;;;1.0;;
45382;SDS011;42455;51.660;5.824;2023-04-25T12:50:25;2.0;;;1.0;;
45382;SDS011;42455;51.660;5.824;2023-04-25T12:55:31;2.5;;;1.0;;
45382;SDS011;42455;51.660;5.824;2023-04-25T13:00:37;3.0;;;1.0;;
45382;SDS011;42455;51.660;5.824;2023-04-25T13:05:43;3.0;;;1.0;;
45382;SDS011;42455;51.660;5.824;2023-04-25T13:15:55;4.0;;;1.0;;
45382;SDS011;42455;51.660;5.824;2023-04-25T13:21:02;3.0;;;1.0;;
45382;SDS011;42455;51.660;5.824;2023-04-25T13:26:08;4.0;;;2.0;;
45382;SDS011;42455;51.660;5.824;2023-04-25T13:31:14;4.0;;;1.0;;
45382;SDS011;42455;51.660;5.824;2023-04-25T13:36:20;4.0;;;1.0;;
45382;SDS011;42455;51.660;5.824;2023-04-25T13:41:26;4.0;;;1.0;;
45382;SDS011;42455;51.660;5.824;2023-04-25T13:46:33;2.0;;;1.0;;
45382;SDS011;42455;51.660;5.824;2023-04-25T13:51:38;2.0;;;1.0;;
45382;SDS011;42455;51.660;5.824;2023-04-25T13:56:44;3.0;;;1.0;;
45382;SDS011;42455;51.660;5.824;2023-04-25T14:01:50;3.0;;;1.0;;
45382;SDS011;42455;51.660;5.824;2023-04-25T14:06:57;3.0;;;1.0;;
45382;SDS011;42455;51.660;5.824;2023-04-25T14:12:03;5.0;;;1.0;;
45382;SDS011;42455;51.660;5.824;2023-04-25T14:17:09;3.0;;;1.0;;
45382;SDS011;42455;51.660;5.824;2023-04-25T14:22:15;3.0;;;1.0;;
45382;SDS011;42455;51.660;5.824;2023-04-25T14:27:21;2.0;;;1.0;;
45382;SDS011;42455;51.660;5.824;2023-04-25T14:32:28;3.0;;;1.0;;
45382;SDS011;42455;51.660;5.824;2023-04-25T14:37:34;2.5;;;1.0;;
45382;SDS011;42455;51.660;5.824;2023-04-25T14:42:40;3.0;;;1.0;;
45382;SDS011;42455;51.660;5.824;2023-04-25T14:47:45;1.0;;;0.0;;
45382;SDS011;42455;51.660;5.824;2023-04-25T14:52:51;2.0;;;1.0;;
45382;SDS011;42455;51.660;5.824;2023-04-25T14:57:57;3.0;;;1.0;;
45382;SDS011;42455;51.660;5.824;2023-04-25T15:03:03;3.5;;;1.0;;
45382;SDS011;42455;51.660;5.824;2023-04-25T15:08:09;3.0;;;1.0;;
45382;SDS011;42455;51.660;5.824;2023-04-25T15:13:17;4.0;;;1.0;;
45382;SDS011;42455;51.660;5.824;2023-04-25T15:18:22;4.0;;;1.0;;
45382;SDS011;42455;51.660;5.824;2023-04-25T15:23:28;3.0;;;1.0;;
45382;SDS011;42455;51.660;5.824;2023-04-25T15:28:34;3.0;;;1.0;;
45382;SDS011;42455;51.660;5.824;2023-04-25T15:33:40;3.0;;;1.0;;
45382;SDS011;42455;51.660;5.824;2023-04-25T15:38:46;2.0;;;1.0;;
45382;SDS011;42455;51.660;5.824;2023-04-25T15:43:53;3.0;;;1.0;;
45382;SDS011;42455;51.660;5.824;2023-04-25T15:48:59;2.0;;;1.0;;
45382;SDS011;42455;51.660;5.824;2023-04-25T15:54:05;3.0;;;1.0;;
45382;SDS011;42455;51.660;5.824;2023-04-25T15:59:12;3.0;;;1.0;;
45382;SDS011;42455;51.660;5.824;2023-04-25T16:04:17;4.0;;;1.0;;
45382;SDS011;42455;51.660;5.824;2023-04-25T16:09:24;3.0;;;1.0;;
45382;SDS011;42455;51.660;5.824;2023-04-25T16:14:30;4.0;;;1.0;;
45382;SDS011;42455;51.660;5.824;2023-04-25T16:19:36;3.0;;;1.0;;
45382;SDS011;42455;51.660;5.824;2023-04-25T16:24:42;4.0;;;1.0;;
45382;SDS011;42455;51.660;5.824;2023-04-25T16:29:48;4.5;;;1.5;;
45382;SDS011;42455;51.660;5.824;2023-04-25T16:34:55;4.0;;;1.0;;
45382;SDS011;42455;51.660;5.824;2023-04-25T16:40:01;2.5;;;1.0;;
45382;SDS011;42455;51.660;5.824;2023-04-25T16:45:06;3.0;;;1.0;;
45382;SDS011;42455;51.660;5.824;2023-04-25T16:50:12;3.0;;;1.0;;
45382;SDS011;42455;51.660;5.824;2023-04-25T16:55:18;4.0;;;1.0;;
45382;SDS011;42455;51.660;5.824;2023-04-25T17:00:24;4.0;;;1.0;;
45382;SDS011;42455;51.660;5.824;2023-04-25T17:05:30;2.0;;;1.0;;
45382;SDS011;42455;51.660;5.824;2023-04-25T17:10:36;4.0;;;1.0;;
45382;SDS011;42455;51.660;5.824;2023-04-25T17:15:42;3.5;;;1.0;;
45382;SDS011;42455;51.660;5.824;2023-04-25T17:20:49;3.0;;;1.0;;
45382;SDS011;42455;51.660;5.824;2023-04-25T17:25:55;2.0;;;1.0;;
45382;SDS011;42455;51.660;5.824;2023-04-25T17:31:01;3.5;;;1.0;;
45382;SDS011;42455;51.660;5.824;2023-04-25T17:36:07;4.0;;;1.0;;
45382;SDS011;42455;51.660;5.824;2023-04-25T17:41:14;3.0;;;1.0;;
45382;SDS011;42455;51.660;5.824;2023-04-25T17:46:20;4.0;;;1.0;;
45382;SDS011;42455;51.660;5.824;2023-04-25T17:51:26;5.0;;;1.0;;
45382;SDS011;42455;51.660;5.824;2023-04-25T17:56:32;2.5;;;1.0;;
45382;SDS011;42455;51.660;5.824;2023-04-25T18:01:38;3.0;;;1.0;;
45382;SDS011;42455;51.660;5.824;2023-04-25T18:06:45;5.0;;;2.0;;
45382;SDS011;42455;51.660;5.824;2023-04-25T18:11:51;4.0;;;1.0;;
45382;SDS011;42455;51.660;5.824;2023-04-25T18:16:57;3.5;;;1.5;;
45382;SDS011;42455;51.660;5.824;2023-04-25T18:22:03;4.0;;;2.0;;
45382;SDS011;42455;51.660;5.824;2023-04-25T18:27:09;3.0;;;2.0;;
45382;SDS011;42455;51.660;5.824;2023-04-25T18:32:16;4.0;;;2.0;;
45382;SDS011;42455;51.660;5.824;2023-04-25T18:37:22;3.0;;;2.0;;
45382;SDS011;42455;51.660;5.824;2023-04-25T18:42:27;4.5;;;2.0;;
45382;SDS011;42455;51.660;5.824;2023-04-25T18:47:33;5.0;;;2.0;;
45382;SDS011;42455;51.660;5.824;2023-04-25T18:52:39;5.0;;;2.0;;
45382;SDS011;42455;51.660;5.824;2023-04-25T18:57:46;5.0;;;2.0;;
45382;SDS011;42455;51.660;5.824;2023-04-25T19:02:52;6.0;;;2.0;;
45382;SDS011;42455;51.660;5.824;2023-04-25T19:07:58;5.0;;;2.0;;
45382;SDS011;42455;51.660;5.824;2023-04-25T19:18:11;4.0;;;2.0;;
45382;SDS011;42455;51.660;5.824;2023-04-25T19:23:17;3.5;;;2.0;;
45382;SDS011;42455;51.660;5.824;2023-04-25T19:28:23;4.0;;;2.0;;
45382;SDS011;42455;51.660;5.824;2023-04-25T19:33:29;3.5;;;2.0;;
45382;SDS011;42455;51.660;5.824;2023-04-25T19:38:35;4.0;;;2.0;;
45382;SDS011;42455;51.660;5.824;2023-04-25T19:43:42;5.0;;;2.0;;
45382;SDS011;42455;51.660;5.824;2023-04-25T19:48:48;5.0;;;2.0;;
45382;SDS011;42455;51.660;5.824;2023-04-25T19:53:54;4.0;;;2.0;;
45382;SDS011;42455;51.660;5.824;2023-04-25T19:59:00;5.0;;;2.0;;
45382;SDS011;42455;51.660;5.824;2023-04-25T20:04:06;6.0;;;3.0;;
45382;SDS011;42455;51.660;5.824;2023-04-25T20:09:13;5.0;;;3.0;;
45382;SDS011;42455;51.660;5.824;2023-04-25T20:14:19;5.0;;;2.0;;
45382;SDS011;42455;51.660;5.824;2023-04-25T20:19:25;4.0;;;2.0;;
45382;SDS011;42455;51.660;5.824;2023-04-25T20:24:31;6.0;;;3.0;;
45382;SDS011;42455;51.660;5.824;2023-04-25T20:29:37;6.5;;;2.0;;
45382;SDS011;42455;51.660;5.824;2023-04-25T20:34:43;5.0;;;3.0;;
45382;SDS011;42455;51.660;5.824;2023-04-25T20:39:49;5.0;;;2.0;;
45382;SDS011;42455;51.660;5.824;2023-04-25T20:44:55;4.0;;;2.0;;
45382;SDS011;42455;51.660;5.824;2023-04-25T20:50:00;6.0;;;2.0;;
45382;SDS011;42455;51.660;5.824;2023-04-25T20:55:07;6.0;;;3.0;;
45382;SDS011;42455;51.660;5.824;2023-04-25T21:00:13;4.0;;;2.0;;
45382;SDS011;42455;51.660;5.824;2023-04-25T21:05:18;6.0;;;2.0;;
45382;SDS011;42455;51.660;5.824;2023-04-25T21:10:24;6.0;;;3.0;;
45382;SDS011;42455;51.660;5.824;2023-04-25T21:15:30;6.0;;;3.0;;
45382;SDS011;42455;51.660;5.824;2023-04-25T21:20:37;5.0;;;3.0;;
45382;SDS011;42455;51.660;5.824;2023-04-25T21:25:43;6.0;;;3.0;;
45382;SDS011;42455;51.660;5.824;2023-04-25T21:30:49;6.0;;;3.0;;
45382;SDS011;42455;51.660;5.824;2023-04-25T21:35:55;5.0;;;3.0;;
45382;SDS011;42455;51.660;5.824;2023-04-25T21:41:01;7.0;;;3.5;;
45382;SDS011;42455;51.660;5.824;2023-04-25T21:46:08;7.0;;;3.0;;
45382;SDS011;42455;51.660;5.824;2023-04-25T21:51:14;7.0;;;4.0;;
45382;SDS011;42455;51.660;5.824;2023-04-25T21:56:20;7.0;;;4.0;;
45382;SDS011;42455;51.660;5.824;2023-04-25T22:01:26;7.0;;;4.0;;
45382;SDS011;42455;51.660;5.824;2023-04-25T22:06:32;6.0;;;4.0;;
45382;SDS011;42455;51.660;5.824;2023-04-25T22:11:39;6.0;;;4.0;;
45382;SDS011;42455;51.660;5.824;2023-04-25T22:16:45;5.0;;;4.0;;
45382;SDS011;42455;51.660;5.824;2023-04-25T22:21:51;7.5;;;4.0;;
45382;SDS011;42455;51.660;5.824;2023-04-25T22:26:57;8.0;;;5.0;;
45382;SDS011;42455;51.660;5.824;2023-04-25T22:32:03;7.0;;;5.0;;
45382;SDS011;42455;51.660;5.824;2023-04-25T22:37:10;7.5;;;5.0;;
45382;SDS011;42455;51.660;5.824;2023-04-25T22:42:16;7.0;;;4.0;;
45382;SDS011;42455;51.660;5.824;2023-04-25T22:47:22;7.0;;;5.0;;
45382;SDS011;42455;51.660;5.824;2023-04-25T22:52:27;8.0;;;5.0;;
45382;SDS011;42455;51.660;5.824;2023-04-25T22:57:35;8.0;;;5.0;;
45382;SDS011;42455;51.660;5.824;2023-04-25T23:02:39;6.0;;;4.0;;
45382;SDS011;42455;51.660;5.824;2023-04-25T23:07:45;7.0;;;5.0;;
45382;SDS011;42455;51.660;5.824;2023-04-25T23:12:51;7.0;;;5.0;;
45382;SDS011;42455;51.660;5.824;2023-04-25T23:17:57;6.5;;;5.0;;
45382;SDS011;42455;51.660;5.824;2023-04-25T23:23:04;9.0;;;5.0;;
45382;SDS011;42455;51.660;5.824;2023-04-25T23:28:10;9.0;;;6.0;;
45382;SDS011;42455;51.660;5.824;2023-04-25T23:33:16;9.0;;;6.0;;
45382;SDS011;42455;51.660;5.824;2023-04-25T23:38:22;8.0;;;6.0;;
45382;SDS011;42455;51.660;5.824;2023-04-25T23:43:28;11.0;;;6.0;;
45382;SDS011;42455;51.660;5.824;2023-04-25T23:48:35;8.0;;;6.0;;
45382;SDS011;42455;51.660;5.824;2023-04-25T23:53:41;10.0;;;7.0;;
45382;SDS011;42455;51.660;5.824;2023-04-25T23:58:47;11.0;;;7.0;;
